Duncanville, Alabama
Current Conditions -  °F | °C
As of 6:53 PM on Wednesday 22 Oct 2014 (Local Time) from KTCL Reporting Station
Clear Clear  
Wind Chill: 60°   Ceiling: Unl
Heat Index: 60°   Visibility: 10mi
Dew Point: 43°   Wind: 7mph
Humidity: 53%   Direction: 10°N
Pressure: 30.13"   Gusts: NA
Location:  33.06°N, 87.45°W
Report Text: KTCL 222353Z 01006KT 10SM CLR 16/06 A3013 RMK AO2 SLP201 T01560061 10217 20156 53005
Loading
Personal Weather Stations






























Interactive Weather Map New forecast layout! Learn more

10-Day Weather Forecast

Advertisements
Track Severe Weather on mobile